sensor_id;sensor_type;location;lat;lon;timestamp;temperature;humidity
1277;DHT22;631;51.024;13.826;2023-02-18T00:02:24;10.20;99.90
1277;DHT22;631;51.024;13.826;2023-02-18T00:04:53;10.20;99.90
1277;DHT22;631;51.024;13.826;2023-02-18T00:07:19;10.30;99.90
1277;DHT22;631;51.024;13.826;2023-02-18T00:09:45;10.30;99.90
1277;DHT22;631;51.024;13.826;2023-02-18T00:12:10;10.30;99.90
1277;DHT22;631;51.024;13.826;2023-02-18T00:14:37;10.30;99.90
1277;DHT22;631;51.024;13.826;2023-02-18T00:17:03;10.40;99.90
1277;DHT22;631;51.024;13.826;2023-02-18T00:19:28;10.30;99.90
1277;DHT22;631;51.024;13.826;2023-02-18T00:21:54;10.30;99.90
1277;DHT22;631;51.024;13.826;2023-02-18T00:24:19;10.40;99.90
1277;DHT22;631;51.024;13.826;2023-02-18T00:26:50;10.40;99.90
1277;DHT22;631;51.024;13.826;2023-02-18T00:29:16;10.40;99.90
1277;DHT22;631;51.024;13.826;2023-02-18T00:31:42;10.30;99.90
1277;DHT22;631;51.024;13.826;2023-02-18T00:34:09;10.40;99.90
1277;DHT22;631;51.024;13.826;2023-02-18T00:36:36;10.30;99.90
1277;DHT22;631;51.024;13.826;2023-02-18T00:39:04;10.40;99.90
1277;DHT22;631;51.024;13.826;2023-02-18T00:41:30;10.30;99.90
1277;DHT22;631;51.024;13.826;2023-02-18T00:43:56;10.30;99.90
1277;DHT22;631;51.024;13.826;2023-02-18T00:46:23;10.30;99.90
1277;DHT22;631;51.024;13.826;2023-02-18T00:48:48;10.40;99.90
1277;DHT22;631;51.024;13.826;2023-02-18T00:51:14;10.30;99.90
1277;DHT22;631;51.024;13.826;2023-02-18T00:53:40;10.40;99.90
1277;DHT22;631;51.024;13.826;2023-02-18T00:56:06;10.30;99.90
1277;DHT22;631;51.024;13.826;2023-02-18T00:58:33;10.30;99.90
1277;DHT22;631;51.024;13.826;2023-02-18T01:00:59;10.20;99.90
1277;DHT22;631;51.024;13.826;2023-02-18T01:03:25;10.20;99.90
1277;DHT22;631;51.024;13.826;2023-02-18T01:05:51;10.20;99.90
1277;DHT22;631;51.024;13.826;2023-02-18T01:08:18;10.20;99.90
1277;DHT22;631;51.024;13.826;2023-02-18T01:10:46;10.20;99.90
1277;DHT22;631;51.024;13.826;2023-02-18T01:13:13;10.20;99.90
1277;DHT22;631;51.024;13.826;2023-02-18T01:15:40;10.10;99.90
1277;DHT22;631;51.024;13.826;2023-02-18T01:18:06;10.20;99.90
1277;DHT22;631;51.024;13.826;2023-02-18T01:20:33;10.10;99.90
1277;DHT22;631;51.024;13.826;2023-02-18T01:22:58;10.10;99.90
1277;DHT22;631;51.024;13.826;2023-02-18T01:25:24;10.10;99.90
1277;DHT22;631;51.024;13.826;2023-02-18T01:27:50;10.00;99.90
1277;DHT22;631;51.024;13.826;2023-02-18T01:30:17;9.90;99.90
1277;DHT22;631;51.024;13.826;2023-02-18T01:32:43;10.00;99.90
1277;DHT22;631;51.024;13.826;2023-02-18T01:35:14;10.00;99.90
1277;DHT22;631;51.024;13.826;2023-02-18T01:37:40;9.90;99.90
1277;DHT22;631;51.024;13.826;2023-02-18T01:40:08;9.90;99.90
1277;DHT22;631;51.024;13.826;2023-02-18T01:42:35;9.80;99.90
1277;DHT22;631;51.024;13.826;2023-02-18T01:48:12;9.80;99.90
1277;DHT22;631;51.024;13.826;2023-02-18T01:50:43;9.70;99.90
1277;DHT22;631;51.024;13.826;2023-02-18T01:53:09;9.60;99.90
1277;DHT22;631;51.024;13.826;2023-02-18T01:55:37;9.60;99.90
1277;DHT22;631;51.024;13.826;2023-02-18T01:58:03;9.60;99.90
1277;DHT22;631;51.024;13.826;2023-02-18T02:00:29;9.60;99.90
1277;DHT22;631;51.024;13.826;2023-02-18T02:02:57;9.60;99.90
1277;DHT22;631;51.024;13.826;2023-02-18T02:05:22;9.50;99.90
1277;DHT22;631;51.024;13.826;2023-02-18T02:07:51;9.50;99.90
1277;DHT22;631;51.024;13.826;2023-02-18T02:10:17;9.50;99.90
1277;DHT22;631;51.024;13.826;2023-02-18T02:16:05;9.50;99.90
1277;DHT22;631;51.024;13.826;2023-02-18T02:27:07;9.40;99.90
1277;DHT22;631;51.024;13.826;2023-02-18T02:36:10;9.40;99.90
1277;DHT22;631;51.024;13.826;2023-02-18T02:38:49;9.40;99.90
1277;DHT22;631;51.024;13.826;2023-02-18T02:41:40;9.40;99.90
1277;DHT22;631;51.024;13.826;2023-02-18T02:44:24;9.40;99.90
1277;DHT22;631;51.024;13.826;2023-02-18T02:47:01;9.30;99.90
1277;DHT22;631;51.024;13.826;2023-02-18T02:49:56;9.30;99.90
1277;DHT22;631;51.024;13.826;2023-02-18T02:52:30;9.40;99.90
1277;DHT22;631;51.024;13.826;2023-02-18T02:54:57;9.40;99.90
1277;DHT22;631;51.024;13.826;2023-02-18T02:59:52;9.40;99.90
1277;DHT22;631;51.024;13.826;2023-02-18T03:02:51;9.50;99.90
1277;DHT22;631;51.024;13.826;2023-02-18T03:11:10;9.50;99.90
1277;DHT22;631;51.024;13.826;2023-02-18T03:19:14;9.70;99.90
1277;DHT22;631;51.024;13.826;2023-02-18T03:21:47;9.80;99.90
1277;DHT22;631;51.024;13.826;2023-02-18T03:26:49;9.80;99.90
1277;DHT22;631;51.024;13.826;2023-02-18T03:29:18;9.70;99.90
1277;DHT22;631;51.024;13.826;2023-02-18T03:31:49;9.80;99.90
1277;DHT22;631;51.024;13.826;2023-02-18T03:34:22;9.70;99.90
1277;DHT22;631;51.024;13.826;2023-02-18T03:36:50;9.80;99.90
1277;DHT22;631;51.024;13.826;2023-02-18T03:39:18;9.80;99.90
1277;DHT22;631;51.024;13.826;2023-02-18T03:41:45;9.80;99.90
1277;DHT22;631;51.024;13.826;2023-02-18T03:44:11;9.80;99.90
1277;DHT22;631;51.024;13.826;2023-02-18T03:46:40;9.80;99.90
1277;DHT22;631;51.024;13.826;2023-02-18T03:49:09;9.80;99.90
1277;DHT22;631;51.024;13.826;2023-02-18T03:51:35;9.80;99.90
1277;DHT22;631;51.024;13.826;2023-02-18T03:54:01;9.70;99.90
1277;DHT22;631;51.024;13.826;2023-02-18T03:56:27;9.70;99.90
1277;DHT22;631;51.024;13.826;2023-02-18T03:58:52;9.60;99.90
1277;DHT22;631;51.024;13.826;2023-02-18T04:01:18;9.70;99.90
1277;DHT22;631;51.024;13.826;2023-02-18T04:03:44;9.70;99.90
1277;DHT22;631;51.024;13.826;2023-02-18T04:06:09;9.80;99.90
1277;DHT22;631;51.024;13.826;2023-02-18T04:08:35;9.80;99.90
1277;DHT22;631;51.024;13.826;2023-02-18T04:11:01;9.70;99.90
1277;DHT22;631;51.024;13.826;2023-02-18T04:13:27;9.70;99.90
1277;DHT22;631;51.024;13.826;2023-02-18T04:15:53;9.60;99.90
1277;DHT22;631;51.024;13.826;2023-02-18T04:18:18;9.60;99.90
1277;DHT22;631;51.024;13.826;2023-02-18T04:20:44;9.70;99.90
1277;DHT22;631;51.024;13.826;2023-02-18T04:23:13;9.70;99.90
1277;DHT22;631;51.024;13.826;2023-02-18T04:25:38;9.80;99.90
1277;DHT22;631;51.024;13.826;2023-02-18T04:28:04;9.90;99.90
1277;DHT22;631;51.024;13.826;2023-02-18T04:30:30;9.80;99.90
1277;DHT22;631;51.024;13.826;2023-02-18T04:32:56;9.80;99.90
1277;DHT22;631;51.024;13.826;2023-02-18T04:35:21;9.70;99.90
1277;DHT22;631;51.024;13.826;2023-02-18T04:37:47;9.70;99.90
1277;DHT22;631;51.024;13.826;2023-02-18T04:40:13;9.80;99.90
1277;DHT22;631;51.024;13.826;2023-02-18T04:42:39;9.80;99.90
1277;DHT22;631;51.024;13.826;2023-02-18T04:45:05;9.70;99.90
1277;DHT22;631;51.024;13.826;2023-02-18T04:47:31;9.70;99.90
1277;DHT22;631;51.024;13.826;2023-02-18T04:49:56;9.70;99.90
1277;DHT22;631;51.024;13.826;2023-02-18T04:52:22;9.60;99.90
1277;DHT22;631;51.024;13.826;2023-02-18T04:54:48;9.60;99.90
1277;DHT22;631;51.024;13.826;2023-02-18T04:57:13;9.60;99.90
1277;DHT22;631;51.024;13.826;2023-02-18T04:59:39;9.60;99.90
1277;DHT22;631;51.024;13.826;2023-02-18T05:02:05;9.60;99.90
1277;DHT22;631;51.024;13.826;2023-02-18T05:04:31;9.60;99.90
1277;DHT22;631;51.024;13.826;2023-02-18T05:06:56;9.60;99.90
1277;DHT22;631;51.024;13.826;2023-02-18T05:09:22;9.70;99.90
1277;DHT22;631;51.024;13.826;2023-02-18T05:11:48;9.60;99.90
1277;DHT22;631;51.024;13.826;2023-02-18T05:14:14;9.70;99.90
1277;DHT22;631;51.024;13.826;2023-02-18T05:16:40;9.60;99.90
1277;DHT22;631;51.024;13.826;2023-02-18T05:19:06;9.60;99.90
1277;DHT22;631;51.024;13.826;2023-02-18T05:21:32;9.70;99.90
1277;DHT22;631;51.024;13.826;2023-02-18T05:23:58;9.70;99.90
1277;DHT22;631;51.024;13.826;2023-02-18T05:26:24;9.70;99.90
1277;DHT22;631;51.024;13.826;2023-02-18T05:28:49;9.60;99.90
1277;DHT22;631;51.024;13.826;2023-02-18T05:31:15;9.60;99.90
1277;DHT22;631;51.024;13.826;2023-02-18T05:33:41;9.70;99.90
1277;DHT22;631;51.024;13.826;2023-02-18T05:36:07;9.70;99.90
1277;DHT22;631;51.024;13.826;2023-02-18T05:38:32;9.60;99.90
1277;DHT22;631;51.024;13.826;2023-02-18T05:40:58;9.70;99.90
1277;DHT22;631;51.024;13.826;2023-02-18T05:43:23;9.70;99.90
1277;DHT22;631;51.024;13.826;2023-02-18T05:45:49;9.80;99.90
1277;DHT22;631;51.024;13.826;2023-02-18T05:48:15;9.70;99.90
1277;DHT22;631;51.024;13.826;2023-02-18T05:50:40;9.60;99.90
1277;DHT22;631;51.024;13.826;2023-02-18T05:53:06;9.60;99.90
1277;DHT22;631;51.024;13.826;2023-02-18T05:55:32;9.60;99.90
1277;DHT22;631;51.024;13.826;2023-02-18T05:58:02;9.50;99.90
1277;DHT22;631;51.024;13.826;2023-02-18T06:00:28;9.50;99.90
1277;DHT22;631;51.024;13.826;2023-02-18T06:02:55;9.50;99.90
1277;DHT22;631;51.024;13.826;2023-02-18T06:05:20;9.60;99.90
1277;DHT22;631;51.024;13.826;2023-02-18T06:07:46;9.50;99.90
1277;DHT22;631;51.024;13.826;2023-02-18T06:10:11;9.40;99.90
1277;DHT22;631;51.024;13.826;2023-02-18T06:12:37;9.40;99.90
1277;DHT22;631;51.024;13.826;2023-02-18T06:15:03;9.30;99.90
1277;DHT22;631;51.024;13.826;2023-02-18T06:17:29;9.30;99.90
1277;DHT22;631;51.024;13.826;2023-02-18T06:19:54;9.30;99.90
1277;DHT22;631;51.024;13.826;2023-02-18T06:22:20;9.30;99.90
1277;DHT22;631;51.024;13.826;2023-02-18T06:24:46;9.20;99.90
1277;DHT22;631;51.024;13.826;2023-02-18T06:27:12;9.20;99.90
1277;DHT22;631;51.024;13.826;2023-02-18T06:29:37;9.10;99.90
1277;DHT22;631;51.024;13.826;2023-02-18T06:32:03;9.10;99.90
1277;DHT22;631;51.024;13.826;2023-02-18T06:34:29;9.10;99.90
1277;DHT22;631;51.024;13.826;2023-02-18T06:36:54;9.00;99.90
1277;DHT22;631;51.024;13.826;2023-02-18T06:39:20;9.00;99.90
1277;DHT22;631;51.024;13.826;2023-02-18T06:41:46;9.00;99.90
1277;DHT22;631;51.024;13.826;2023-02-18T06:44:11;8.90;99.90
1277;DHT22;631;51.024;13.826;2023-02-18T06:46:39;8.90;99.90
1277;DHT22;631;51.024;13.826;2023-02-18T06:49:05;8.80;99.90
1277;DHT22;631;51.024;13.826;2023-02-18T06:51:30;8.80;99.90
1277;DHT22;631;51.024;13.826;2023-02-18T06:53:56;8.70;99.90
1277;DHT22;631;51.024;13.826;2023-02-18T06:56:22;8.70;99.90
1277;DHT22;631;51.024;13.826;2023-02-18T06:58:48;8.60;99.90
1277;DHT22;631;51.024;13.826;2023-02-18T07:01:13;8.70;99.90
1277;DHT22;631;51.024;13.826;2023-02-18T07:03:39;8.60;99.90
1277;DHT22;631;51.024;13.826;2023-02-18T07:06:05;8.60;99.90
1277;DHT22;631;51.024;13.826;2023-02-18T07:08:30;8.50;99.90
1277;DHT22;631;51.024;13.826;2023-02-18T07:11:00;8.50;99.90
1277;DHT22;631;51.024;13.826;2023-02-18T07:13:26;8.50;99.90
1277;DHT22;631;51.024;13.826;2023-02-18T07:15:52;8.50;99.90
1277;DHT22;631;51.024;13.826;2023-02-18T07:18:18;8.50;99.90
1277;DHT22;631;51.024;13.826;2023-02-18T07:20:43;8.50;99.90
1277;DHT22;631;51.024;13.826;2023-02-18T07:23:09;8.50;99.90
1277;DHT22;631;51.024;13.826;2023-02-18T07:25:35;8.50;99.90
1277;DHT22;631;51.024;13.826;2023-02-18T07:28:01;8.50;99.90
1277;DHT22;631;51.024;13.826;2023-02-18T07:30:27;8.50;99.90
1277;DHT22;631;51.024;13.826;2023-02-18T07:32:52;8.50;99.90
1277;DHT22;631;51.024;13.826;2023-02-18T07:35:18;8.50;99.90
1277;DHT22;631;51.024;13.826;2023-02-18T07:37:46;8.50;99.90
1277;DHT22;631;51.024;13.826;2023-02-18T07:40:15;8.50;99.90
1277;DHT22;631;51.024;13.826;2023-02-18T07:42:42;8.50;99.90
1277;DHT22;631;51.024;13.826;2023-02-18T07:45:08;8.50;99.90
1277;DHT22;631;51.024;13.826;2023-02-18T07:47:34;8.50;99.90
1277;DHT22;631;51.024;13.826;2023-02-18T07:50:00;8.50;99.90
1277;DHT22;631;51.024;13.826;2023-02-18T07:52:26;8.50;99.90
1277;DHT22;631;51.024;13.826;2023-02-18T07:54:51;8.50;99.90
1277;DHT22;631;51.024;13.826;2023-02-18T07:57:17;8.50;99.90
1277;DHT22;631;51.024;13.826;2023-02-18T07:59:42;8.50;99.90
1277;DHT22;631;51.024;13.826;2023-02-18T08:02:16;8.50;99.90
1277;DHT22;631;51.024;13.826;2023-02-18T08:04:42;8.50;99.90
1277;DHT22;631;51.024;13.826;2023-02-18T08:07:15;8.50;99.90
1277;DHT22;631;51.024;13.826;2023-02-18T08:09:41;8.60;99.90
1277;DHT22;631;51.024;13.826;2023-02-18T08:12:07;8.50;99.90
1277;DHT22;631;51.024;13.826;2023-02-18T08:14:33;8.60;99.90
1277;DHT22;631;51.024;13.826;2023-02-18T08:16:58;8.60;99.90
1277;DHT22;631;51.024;13.826;2023-02-18T08:19:24;8.70;99.90
1277;DHT22;631;51.024;13.826;2023-02-18T08:21:50;8.70;99.90
1277;DHT22;631;51.024;13.826;2023-02-18T08:24:15;8.70;99.90
1277;DHT22;631;51.024;13.826;2023-02-18T08:26:41;8.80;99.90
1277;DHT22;631;51.024;13.826;2023-02-18T08:29:06;8.80;99.90
1277;DHT22;631;51.024;13.826;2023-02-18T08:31:32;8.80;99.90
1277;DHT22;631;51.024;13.826;2023-02-18T08:33:59;8.80;99.90
1277;DHT22;631;51.024;13.826;2023-02-18T08:36:26;8.90;99.90
1277;DHT22;631;51.024;13.826;2023-02-18T08:38:51;8.90;99.90
1277;DHT22;631;51.024;13.826;2023-02-18T08:41:17;9.00;99.90
1277;DHT22;631;51.024;13.826;2023-02-18T08:43:44;9.00;99.90
1277;DHT22;631;51.024;13.826;2023-02-18T08:46:10;8.90;99.90
1277;DHT22;631;51.024;13.826;2023-02-18T08:48:36;9.00;99.90
1277;DHT22;631;51.024;13.826;2023-02-18T08:51:20;9.00;99.90
1277;DHT22;631;51.024;13.826;2023-02-18T08:53:46;9.10;99.90
1277;DHT22;631;51.024;13.826;2023-02-18T08:56:13;9.10;99.90
1277;DHT22;631;51.024;13.826;2023-02-18T08:58:40;9.10;99.90
1277;DHT22;631;51.024;13.826;2023-02-18T09:01:08;9.00;99.90
1277;DHT22;631;51.024;13.826;2023-02-18T09:03:34;9.10;99.90
1277;DHT22;631;51.024;13.826;2023-02-18T09:06:00;9.10;99.90
1277;DHT22;631;51.024;13.826;2023-02-18T09:08:28;9.20;99.90
1277;DHT22;631;51.024;13.826;2023-02-18T09:10:59;9.20;99.90
1277;DHT22;631;51.024;13.826;2023-02-18T09:13:25;9.10;99.90
1277;DHT22;631;51.024;13.826;2023-02-18T09:18:22;9.20;99.90
1277;DHT22;631;51.024;13.826;2023-02-18T09:20:48;9.20;99.90
1277;DHT22;631;51.024;13.826;2023-02-18T09:23:14;9.10;99.90
1277;DHT22;631;51.024;13.826;2023-02-18T09:25:40;9.10;99.90
1277;DHT22;631;51.024;13.826;2023-02-18T09:28:06;9.10;99.90
1277;DHT22;631;51.024;13.826;2023-02-18T09:30:31;9.10;99.90
1277;DHT22;631;51.024;13.826;2023-02-18T09:32:57;9.10;99.90
1277;DHT22;631;51.024;13.826;2023-02-18T09:35:23;9.20;99.90
1277;DHT22;631;51.024;13.826;2023-02-18T09:37:48;9.20;99.90
1277;DHT22;631;51.024;13.826;2023-02-18T09:40:25;9.20;99.90
1277;DHT22;631;51.024;13.826;2023-02-18T09:42:53;9.20;99.90
1277;DHT22;631;51.024;13.826;2023-02-18T09:45:19;9.20;99.90
1277;DHT22;631;51.024;13.826;2023-02-18T09:47:46;9.30;99.90
1277;DHT22;631;51.024;13.826;2023-02-18T09:50:22;9.30;99.90
1277;DHT22;631;51.024;13.826;2023-02-18T09:52:50;9.30;99.90
1277;DHT22;631;51.024;13.826;2023-02-18T09:55:29;9.40;99.90
1277;DHT22;631;51.024;13.826;2023-02-18T09:58:03;9.40;99.90
1277;DHT22;631;51.024;13.826;2023-02-18T10:00:36;9.50;99.90
1277;DHT22;631;51.024;13.826;2023-02-18T10:03:17;9.60;99.90
1277;DHT22;631;51.024;13.826;2023-02-18T10:08:29;9.80;99.90
1277;DHT22;631;51.024;13.826;2023-02-18T10:10:56;9.80;99.90
1277;DHT22;631;51.024;13.826;2023-02-18T10:13:26;9.90;99.90
1277;DHT22;631;51.024;13.826;2023-02-18T10:15:52;10.00;99.90
1277;DHT22;631;51.024;13.826;2023-02-18T10:21:28;10.20;99.90
1277;DHT22;631;51.024;13.826;2023-02-18T10:26:42;10.50;99.90
1277;DHT22;631;51.024;13.826;2023-02-18T10:29:19;10.60;99.90
1277;DHT22;631;51.024;13.826;2023-02-18T10:31:56;10.70;99.90
1277;DHT22;631;51.024;13.826;2023-02-18T10:40:10;11.10;99.90
1277;DHT22;631;51.024;13.826;2023-02-18T10:45:35;11.20;99.90
1277;DHT22;631;51.024;13.826;2023-02-18T10:50:37;11.40;99.90
1277;DHT22;631;51.024;13.826;2023-02-18T10:55:50;11.50;99.90
1277;DHT22;631;51.024;13.826;2023-02-18T11:00:57;11.50;99.90
1277;DHT22;631;51.024;13.826;2023-02-18T11:06:37;11.60;99.90
1277;DHT22;631;51.024;13.826;2023-02-18T11:09:03;11.70;99.90
1277;DHT22;631;51.024;13.826;2023-02-18T11:11:35;11.70;99.90
1277;DHT22;631;51.024;13.826;2023-02-18T11:14:04;11.80;99.90
1277;DHT22;631;51.024;13.826;2023-02-18T11:16:41;11.80;99.90
1277;DHT22;631;51.024;13.826;2023-02-18T11:19:33;11.90;99.90
1277;DHT22;631;51.024;13.826;2023-02-18T11:22:15;12.10;99.90
1277;DHT22;631;51.024;13.826;2023-02-18T11:24:43;12.20;99.90
1277;DHT22;631;51.024;13.826;2023-02-18T11:27:45;12.40;99.90
1277;DHT22;631;51.024;13.826;2023-02-18T11:30:35;12.50;99.90
1277;DHT22;631;51.024;13.826;2023-02-18T11:33:06;12.50;99.90
1277;DHT22;631;51.024;13.826;2023-02-18T11:35:33;12.50;99.90
1277;DHT22;631;51.024;13.826;2023-02-18T11:38:02;12.60;99.90
1277;DHT22;631;51.024;13.826;2023-02-18T11:40:35;12.60;99.90
1277;DHT22;631;51.024;13.826;2023-02-18T11:43:13;12.70;99.90
1277;DHT22;631;51.024;13.826;2023-02-18T11:45:40;12.80;99.90
1277;DHT22;631;51.024;13.826;2023-02-18T11:48:14;12.90;99.90
1277;DHT22;631;51.024;13.826;2023-02-18T11:50:40;12.90;99.90
1277;DHT22;631;51.024;13.826;2023-02-18T11:56:19;13.10;99.90
1277;DHT22;631;51.024;13.826;2023-02-18T11:58:46;13.20;99.90
1277;DHT22;631;51.024;13.826;2023-02-18T12:01:19;13.10;99.90
1277;DHT22;631;51.024;13.826;2023-02-18T12:09:37;13.10;99.90
1277;DHT22;631;51.024;13.826;2023-02-18T12:14:49;13.00;99.90
1277;DHT22;631;51.024;13.826;2023-02-18T12:20:13;12.80;99.90
1277;DHT22;631;51.024;13.826;2023-02-18T12:22:44;12.60;99.90
1277;DHT22;631;51.024;13.826;2023-02-18T12:34:05;12.30;99.90
1277;DHT22;631;51.024;13.826;2023-02-18T12:40:02;12.30;99.90
1277;DHT22;631;51.024;13.826;2023-02-18T12:48:08;12.50;99.90
1277;DHT22;631;51.024;13.826;2023-02-18T12:56:54;12.40;99.90
1277;DHT22;631;51.024;13.826;2023-02-18T13:10:55;11.90;99.90
1277;DHT22;631;51.024;13.826;2023-02-18T13:13:32;11.90;99.90
1277;DHT22;631;51.024;13.826;2023-02-18T13:16:03;11.80;99.90
1277;DHT22;631;51.024;13.826;2023-02-18T13:18:39;11.80;99.90
1277;DHT22;631;51.024;13.826;2023-02-18T13:21:14;11.70;99.90
1277;DHT22;631;51.024;13.826;2023-02-18T13:24:02;11.70;99.90
1277;DHT22;631;51.024;13.826;2023-02-18T13:26:32;11.80;99.90
1277;DHT22;631;51.024;13.826;2023-02-18T13:32:11;11.90;99.90
1277;DHT22;631;51.024;13.826;2023-02-18T13:40:21;12.00;99.90
1277;DHT22;631;51.024;13.826;2023-02-18T13:42:53;12.00;99.90
1277;DHT22;631;51.024;13.826;2023-02-18T13:45:31;12.00;99.90
1277;DHT22;631;51.024;13.826;2023-02-18T13:47:58;11.80;99.90
1277;DHT22;631;51.024;13.826;2023-02-18T13:50:30;11.60;99.90
1277;DHT22;631;51.024;13.826;2023-02-18T13:53:11;11.50;99.90
1277;DHT22;631;51.024;13.826;2023-02-18T13:56:03;11.40;99.90
1277;DHT22;631;51.024;13.826;2023-02-18T13:58:43;11.30;99.90
1277;DHT22;631;51.024;13.826;2023-02-18T14:03:48;11.40;99.90
1277;DHT22;631;51.024;13.826;2023-02-18T14:06:31;11.40;99.90
1277;DHT22;631;51.024;13.826;2023-02-18T14:11:47;11.40;99.90
1277;DHT22;631;51.024;13.826;2023-02-18T14:17:23;11.60;99.90
1277;DHT22;631;51.024;13.826;2023-02-18T14:24:58;11.70;99.90
1277;DHT22;631;51.024;13.826;2023-02-18T14:27:25;11.70;99.90
1277;DHT22;631;51.024;13.826;2023-02-18T14:29:51;11.80;99.90
1277;DHT22;631;51.024;13.826;2023-02-18T14:32:18;11.70;99.90
1277;DHT22;631;51.024;13.826;2023-02-18T14:43:43;11.70;99.90
1277;DHT22;631;51.024;13.826;2023-02-18T14:49:05;11.60;99.90
1277;DHT22;631;51.024;13.826;2023-02-18T14:51:34;11.60;99.90
1277;DHT22;631;51.024;13.826;2023-02-18T14:54:11;11.70;99.90
1277;DHT22;631;51.024;13.826;2023-02-18T14:57:04;11.60;99.90
1277;DHT22;631;51.024;13.826;2023-02-18T14:59:39;11.70;99.90
1277;DHT22;631;51.024;13.826;2023-02-18T15:02:23;11.60;99.90
1277;DHT22;631;51.024;13.826;2023-02-18T15:04:49;11.50;99.90
1277;DHT22;631;51.024;13.826;2023-02-18T15:07:19;11.40;99.90
1277;DHT22;631;51.024;13.826;2023-02-18T15:09:51;11.30;99.90
1277;DHT22;631;51.024;13.826;2023-02-18T15:12:20;11.10;99.90
1277;DHT22;631;51.024;13.826;2023-02-18T15:14:50;10.90;99.90
1277;DHT22;631;51.024;13.826;2023-02-18T15:17:22;10.80;99.90
1277;DHT22;631;51.024;13.826;2023-02-18T15:19:55;10.70;99.90
1277;DHT22;631;51.024;13.826;2023-02-18T15:22:24;10.60;99.90
1277;DHT22;631;51.024;13.826;2023-02-18T15:24:52;10.50;99.90
1277;DHT22;631;51.024;13.826;2023-02-18T15:27:21;10.50;99.90
1277;DHT22;631;51.024;13.826;2023-02-18T15:29:53;10.40;99.90
1277;DHT22;631;51.024;13.826;2023-02-18T15:32:26;10.40;99.90
1277;DHT22;631;51.024;13.826;2023-02-18T15:34:58;10.40;99.90
1277;DHT22;631;51.024;13.826;2023-02-18T15:37:26;10.30;99.90
1277;DHT22;631;51.024;13.826;2023-02-18T15:39:52;10.40;99.90
1277;DHT22;631;51.024;13.826;2023-02-18T15:44:50;10.50;99.90
1277;DHT22;631;51.024;13.826;2023-02-18T15:47:17;10.60;99.90
1277;DHT22;631;51.024;13.826;2023-02-18T15:50:02;10.60;99.90
1277;DHT22;631;51.024;13.826;2023-02-18T15:52:33;10.80;99.90
1277;DHT22;631;51.024;13.826;2023-02-18T15:55:08;10.90;99.90
1277;DHT22;631;51.024;13.826;2023-02-18T15:57:36;10.90;99.90
1277;DHT22;631;51.024;13.826;2023-02-18T16:00:13;11.00;99.90
1277;DHT22;631;51.024;13.826;2023-02-18T16:03:03;11.10;99.90
1277;DHT22;631;51.024;13.826;2023-02-18T16:05:36;11.30;99.90
1277;DHT22;631;51.024;13.826;2023-02-18T16:08:13;11.40;99.90
1277;DHT22;631;51.024;13.826;2023-02-18T16:10:49;11.40;99.90
1277;DHT22;631;51.024;13.826;2023-02-18T16:13:18;11.60;99.90
1277;DHT22;631;51.024;13.826;2023-02-18T16:15:45;11.60;99.90
1277;DHT22;631;51.024;13.826;2023-02-18T16:18:39;11.60;99.90
1277;DHT22;631;51.024;13.826;2023-02-18T16:21:29;11.70;99.90
1277;DHT22;631;51.024;13.826;2023-02-18T16:24:00;11.80;99.90
1277;DHT22;631;51.024;13.826;2023-02-18T16:26:40;11.80;99.90
1277;DHT22;631;51.024;13.826;2023-02-18T16:29:13;11.70;99.90
1277;DHT22;631;51.024;13.826;2023-02-18T16:31:39;11.70;99.90
1277;DHT22;631;51.024;13.826;2023-02-18T16:34:05;11.70;99.90
1277;DHT22;631;51.024;13.826;2023-02-18T16:36:31;11.70;99.90
1277;DHT22;631;51.024;13.826;2023-02-18T16:38:57;11.70;99.90
1277;DHT22;631;51.024;13.826;2023-02-18T16:41:26;11.80;99.90
1277;DHT22;631;51.024;13.826;2023-02-18T16:43:52;11.80;99.90
1277;DHT22;631;51.024;13.826;2023-02-18T16:46:21;11.70;99.90
1277;DHT22;631;51.024;13.826;2023-02-18T16:48:52;11.80;99.90
1277;DHT22;631;51.024;13.826;2023-02-18T16:51:29;11.70;99.90
1277;DHT22;631;51.024;13.826;2023-02-18T16:53:55;11.70;99.90
1277;DHT22;631;51.024;13.826;2023-02-18T16:56:24;11.70;99.90
1277;DHT22;631;51.024;13.826;2023-02-18T16:58:50;11.70;99.90
1277;DHT22;631;51.024;13.826;2023-02-18T17:01:41;11.70;99.90
1277;DHT22;631;51.024;13.826;2023-02-18T17:04:18;11.70;99.90
1277;DHT22;631;51.024;13.826;2023-02-18T17:06:45;11.80;99.90
1277;DHT22;631;51.024;13.826;2023-02-18T17:09:19;11.80;99.90
1277;DHT22;631;51.024;13.826;2023-02-18T17:11:48;11.80;99.90
1277;DHT22;631;51.024;13.826;2023-02-18T17:14:15;11.80;99.90
1277;DHT22;631;51.024;13.826;2023-02-18T17:16:43;11.80;99.90
1277;DHT22;631;51.024;13.826;2023-02-18T17:19:09;11.80;99.90
1277;DHT22;631;51.024;13.826;2023-02-18T17:21:34;11.80;99.90
1277;DHT22;631;51.024;13.826;2023-02-18T17:24:00;11.80;99.90
1277;DHT22;631;51.024;13.826;2023-02-18T17:26:28;11.70;99.90
1277;DHT22;631;51.024;13.826;2023-02-18T17:28:55;11.70;99.90
1277;DHT22;631;51.024;13.826;2023-02-18T17:31:27;11.70;99.90
1277;DHT22;631;51.024;13.826;2023-02-18T17:33:55;11.60;99.90
1277;DHT22;631;51.024;13.826;2023-02-18T17:36:21;11.50;99.90
1277;DHT22;631;51.024;13.826;2023-02-18T17:38:47;11.30;99.90
1277;DHT22;631;51.024;13.826;2023-02-18T17:41:14;11.30;99.90
1277;DHT22;631;51.024;13.826;2023-02-18T17:43:40;11.30;99.90
1277;DHT22;631;51.024;13.826;2023-02-18T17:46:11;11.30;99.90
1277;DHT22;631;51.024;13.826;2023-02-18T17:48:37;11.30;99.90
1277;DHT22;631;51.024;13.826;2023-02-18T17:51:03;11.20;99.90
1277;DHT22;631;51.024;13.826;2023-02-18T17:53:32;11.10;99.90
1277;DHT22;631;51.024;13.826;2023-02-18T17:55:58;11.00;99.90
1277;DHT22;631;51.024;13.826;2023-02-18T17:58:23;10.90;99.90
1277;DHT22;631;51.024;13.826;2023-02-18T18:00:52;11.00;99.90
1277;DHT22;631;51.024;13.826;2023-02-18T18:03:18;11.00;99.90
1277;DHT22;631;51.024;13.826;2023-02-18T18:05:46;11.00;99.90
1277;DHT22;631;51.024;13.826;2023-02-18T18:08:12;11.00;99.90
1277;DHT22;631;51.024;13.826;2023-02-18T18:10:50;11.00;99.90
1277;DHT22;631;51.024;13.826;2023-02-18T18:13:29;11.00;99.90
1277;DHT22;631;51.024;13.826;2023-02-18T18:15:57;11.10;99.90
1277;DHT22;631;51.024;13.826;2023-02-18T18:18:22;11.00;99.90
1277;DHT22;631;51.024;13.826;2023-02-18T18:20:53;11.00;99.90
1277;DHT22;631;51.024;13.826;2023-02-18T18:23:20;11.10;99.90
1277;DHT22;631;51.024;13.826;2023-02-18T18:25:52;11.10;99.90
1277;DHT22;631;51.024;13.826;2023-02-18T18:28:18;11.20;99.90
1277;DHT22;631;51.024;13.826;2023-02-18T18:30:46;11.30;99.90
1277;DHT22;631;51.024;13.826;2023-02-18T18:33:20;11.30;99.90
1277;DHT22;631;51.024;13.826;2023-02-18T18:35:48;11.30;99.90
1277;DHT22;631;51.024;13.826;2023-02-18T18:38:15;11.30;99.90
1277;DHT22;631;51.024;13.826;2023-02-18T18:40:41;11.40;99.90
1277;DHT22;631;51.024;13.826;2023-02-18T18:43:16;11.50;99.90
1277;DHT22;631;51.024;13.826;2023-02-18T18:45:42;11.50;99.90
1277;DHT22;631;51.024;13.826;2023-02-18T18:48:08;11.60;99.90
1277;DHT22;631;51.024;13.826;2023-02-18T18:50:34;11.40;99.90
1277;DHT22;631;51.024;13.826;2023-02-18T18:53:02;11.30;99.90
1277;DHT22;631;51.024;13.826;2023-02-18T18:57:53;11.10;99.90
1277;DHT22;631;51.024;13.826;2023-02-18T19:00:26;10.90;99.90